Time;durP1;ratioP1;P1;durP2;ratioP2;P2;SDS_P1;SDS_P2;PMS_P1;PMS_P2;Temp;Humidity;BMP_temperature;BMP_pressure;BME280_temperature;BME280_humidity;BME280_pressure;Samples;Min_cycle;Max_cycle;Signal;HPM_P1;HPM_P2
2022/11/10 00:01:55;;;;;;;53.67;30.25;;;;;;;7.78;74.74;100848.75;5085328;28;20499;-26
2022/11/10 00:04:20;;;;;;;48.33;28.73;;;;;;;7.74;74.87;100860.72;5086809;28;20062;-28
2022/11/10 00:06:46;;;;;;;50.90;29.92;;;;;;;7.84;74.43;100858.63;5086775;28;20062;-26
2022/11/10 00:09:12;;;;;;;49.08;27.63;;;;;;;7.64;74.77;100861.81;5068514;28;20040;-27
2022/11/10 00:11:37;;;;;;;51.25;26.83;;;;;;;7.66;74.02;100853.66;5068622;28;20036;-26
2022/11/10 00:17:05;;;;;;;47.70;27.17;;;;;;;7.56;74.14;100861.91;5086943;28;20047;-30
2022/11/10 00:19:31;;;;;;;46.80;26.98;;;;;;;7.43;75.37;100861.66;5085661;28;20143;-28
2022/11/10 00:21:58;;;;;;;47.20;26.10;;;;;;;7.44;75.92;100858.03;5086555;28;20343;-27
2022/11/10 00:24:23;;;;;;;47.92;26.55;;;;;;;7.62;73.98;100865.66;5068482;28;20110;-26
2022/11/10 00:26:50;;;;;;;49.22;28.77;;;;;;;7.53;74.00;100841.00;5086770;28;20099;-26
2022/11/10 00:29:15;;;;;;;46.22;27.42;;;;;;;7.73;74.23;100864.41;5068528;28;20459;-25
2022/11/10 00:31:41;;;;;;;47.38;26.90;;;;;;;7.64;74.45;100864.47;5086666;28;20024;-29
2022/11/10 00:34:15;;;;;;;52.05;28.50;;;;;;;7.48;74.44;100851.34;5087183;28;20082;-28
2022/11/10 00:36:42;;;;;;;49.03;28.67;;;;;;;7.14;76.10;100834.03;5086912;28;20024;-26
2022/11/10 00:39:07;;;;;;;49.35;29.27;;;;;;;7.20;76.48;100846.59;5086499;28;20027;-27
2022/11/10 00:41:33;;;;;;;46.45;28.00;;;;;;;6.77;77.63;100843.56;5086612;28;20392;-29
2022/11/10 00:43:58;;;;;;;50.80;29.00;;;;;;;6.80;77.92;100840.56;5086368;28;20047;-27
2022/11/10 00:46:24;;;;;;;54.88;30.27;;;;;;;7.36;76.01;100850.94;5088690;28;20028;-27
2022/11/10 00:48:49;;;;;;;51.70;29.70;;;;;;;7.45;75.14;100852.50;5090094;28;20056;-25
2022/11/10 00:51:23;;;;;;;53.03;30.27;;;;;;;7.35;75.22;100853.78;5088436;28;20020;-28
2022/11/10 00:53:50;;;;;;;51.10;29.23;;;;;;;7.30;74.47;100861.47;5089937;28;20038;-27
2022/11/10 00:56:15;;;;;;;46.17;28.13;;;;;;;7.12;75.06;100851.13;5090034;28;20496;-27
2022/11/10 00:58:41;;;;;;;52.88;29.25;;;;;;;7.09;74.42;100839.06;5089744;28;20028;-27
2022/11/10 01:01:07;;;;;;;50.72;30.38;;;;;;;7.00;74.34;100830.31;5089806;28;20040;-27
2022/11/10 01:03:33;;;;;;;56.20;30.45;;;;;;;7.24;74.17;100847.06;5088505;28;20116;-27
2022/11/10 01:06:04;;;;;;;54.83;30.80;;;;;;;7.13;74.89;100850.13;5089628;28;20564;-25
2022/11/10 01:08:29;;;;;;;56.13;32.47;;;;;;;7.01;75.66;100850.56;5089793;28;20028;-28
2022/11/10 01:11:05;;;;;;;56.80;30.05;;;;;;;6.98;74.38;100816.41;5089413;28;20035;-26
2022/11/10 01:13:31;;;;;;;54.10;31.17;;;;;;;7.09;74.82;100823.16;5089993;28;20020;-25
2022/11/10 01:15:56;;;;;;;60.08;32.25;;;;;;;6.69;76.01;100822.41;5071337;28;20408;-25
2022/11/10 01:18:22;;;;;;;55.83;31.00;;;;;;;6.80;75.98;100837.94;5089886;28;20024;-27
2022/11/10 01:20:51;;;;;;;55.65;31.23;;;;;;;6.70;76.48;100845.28;5089468;28;20647;-29
2022/11/10 01:23:17;;;;;;;51.65;29.95;;;;;;;6.73;76.17;100823.72;5089388;28;20119;-25
2022/11/10 01:25:43;;;;;;;49.13;28.85;;;;;;;6.82;76.67;100835.94;5070966;28;20028;-28
2022/11/10 01:28:08;;;;;;;51.53;29.92;;;;;;;6.64;77.56;100830.06;5089730;28;20039;-27
2022/11/10 01:30:33;;;;;;;50.55;28.77;;;;;;;6.40;78.44;100820.41;5089623;28;20484;-26
2022/11/10 01:32:59;;;;;;;50.00;28.75;;;;;;;6.53;76.62;100827.81;5071180;28;20107;-26
2022/11/10 01:35:24;;;;;;;56.25;29.05;;;;;;;6.01;78.53;100830.00;5088990;28;20032;-27
2022/11/10 01:37:53;;;;;;;55.15;31.00;;;;;;;6.12;78.05;100830.63;5089205;28;20024;-26
2022/11/10 01:40:19;;;;;;;47.63;28.58;;;;;;;6.26;76.56;100827.25;5088958;28;20036;-27
2022/11/10 01:42:49;;;;;;;49.65;28.10;;;;;;;6.56;75.57;100830.09;5089346;28;20085;-26
2022/11/10 01:45:23;;;;;;;54.13;29.33;;;;;;;6.64;75.19;100836.19;5089073;28;20090;-28
2022/11/10 01:47:55;;;;;;;54.75;27.98;;;;;;;6.67;74.62;100824.41;5088922;28;20926;-26
2022/11/10 01:50:24;;;;;;;51.72;28.85;;;;;;;6.17;76.79;100845.00;5087706;28;20043;-25
2022/11/10 01:52:54;;;;;;;53.67;29.75;;;;;;;6.42;76.22;100843.09;5071017;28;20028;-28
2022/11/10 01:55:20;;;;;;;53.53;30.02;;;;;;;6.06;76.45;100820.72;5088928;28;20032;-27
2022/11/10 01:57:45;;;;;;;50.42;28.23;;;;;;;5.94;78.74;100844.03;5088108;28;20027;-25
2022/11/10 02:00:11;;;;;;;53.40;28.38;;;;;;;6.11;77.67;100834.25;5070827;28;20028;-26
2022/11/10 02:02:44;;;;;;;53.17;26.77;;;;;;;5.84;75.94;100844.22;5089050;28;20161;-28
2022/11/10 02:05:09;;;;;;;51.88;26.65;;;;;;;5.61;74.91;100825.56;5088622;28;20040;-26
2022/11/10 02:07:35;;;;;;;58.72;32.08;;;;;;;5.96;74.54;100844.72;5088732;28;20059;-30
2022/11/10 02:10:04;;;;;;;60.47;30.88;;;;;;;6.02;74.77;100836.94;5088537;28;20675;-27
2022/11/10 02:12:37;;;;;;;62.65;30.67;;;;;;;5.86;75.25;100839.59;5088755;28;20503;-25
2022/11/10 02:15:09;;;;;;;80.03;36.78;;;;;;;6.17;74.51;100850.31;5088198;28;20031;-29
2022/11/10 02:17:35;;;;;;;88.65;37.65;;;;;;;5.57;76.56;100821.63;5088419;28;20028;-28
2022/11/10 02:20:03;;;;;;;94.10;37.80;;;;;;;5.69;76.37;100835.34;5087898;28;20043;-27
2022/11/10 02:22:32;;;;;;;70.47;33.65;;;;;;;5.69;76.83;100832.69;5088436;28;20494;-29
2022/11/10 02:24:58;;;;;;;59.58;31.40;;;;;;;5.88;77.15;100856.13;5088252;28;20111;-26
2022/11/10 02:27:24;;;;;;;59.53;30.15;;;;;;;6.02;75.85;100836.94;5069634;28;20503;-28
2022/11/10 02:29:49;;;;;;;57.30;29.88;;;;;;;5.96;76.01;100861.44;5088022;28;20028;-26
2022/11/10 02:32:15;;;;;;;55.30;29.02;;;;;;;5.99;76.32;100869.06;5088082;28;20039;-29
2022/11/10 02:34:41;;;;;;;46.58;27.27;;;;;;;5.94;76.13;100860.75;5069333;28;20032;-26
2022/11/10 02:37:06;;;;;;;47.92;25.92;;;;;;;5.45;78.17;100839.63;5088004;28;20039;-26
2022/11/10 02:39:32;;;;;;;47.25;27.23;;;;;;;5.75;77.38;100858.47;5088019;28;20028;-26
2022/11/10 02:41:57;;;;;;;46.88;26.77;;;;;;;5.87;76.23;100862.44;5069544;28;20028;-26
2022/11/10 02:44:23;;;;;;;44.35;26.50;;;;;;;5.35;78.30;100854.84;5088003;28;20048;-30
2022/11/10 02:46:48;;;;;;;53.40;30.83;;;;;;;5.35;78.86;100849.56;5088053;28;20035;-25
2022/11/10 02:49:13;;;;;;;64.53;34.15;;;;;;;5.44;79.39;100828.25;5087593;28;20107;-27
2022/11/10 02:51:39;;;;;;;58.97;34.30;;;;;;;5.55;78.96;100858.00;5087805;28;20031;-29
2022/11/10 02:54:07;;;;;;;50.47;28.40;;;;;;;5.15;77.44;100860.47;5087597;28;20036;-27
2022/11/10 02:56:34;;;;;;;49.50;27.70;;;;;;;5.52;77.55;100866.28;5087653;28;20024;-26
2022/11/10 02:59:00;;;;;;;50.78;28.73;;;;;;;5.43;77.79;100863.63;5087571;28;20028;-28
2022/11/10 03:01:25;;;;;;;53.40;30.55;;;;;;;5.79;76.46;100873.03;5087090;28;20425;-28
2022/11/10 03:03:51;;;;;;;65.97;38.95;;;;;;;6.00;77.15;100869.88;5069522;28;20028;-28
2022/11/10 03:06:16;;;;;;;64.85;36.25;;;;;;;5.97;78.53;100868.41;5087833;28;20060;-25
2022/11/10 03:08:42;;;;;;;71.80;42.08;;;;;;;5.78;78.93;100872.22;5087237;28;20779;-26
2022/11/10 03:11:07;;;;;;;82.53;48.60;;;;;;;5.92;77.85;100877.78;5085868;28;20373;-28
2022/11/10 03:13:33;;;;;;;88.95;53.03;;;;;;;5.77;79.05;100869.72;5069181;28;20463;-31
2022/11/10 03:15:58;;;;;;;89.07;52.05;;;;;;;5.69;80.58;100867.91;5087369;28;20027;-30
2022/11/10 03:18:23;;;;;;;92.93;55.85;;;;;;;5.83;80.47;100869.06;5087167;28;20043;-33
2022/11/10 03:20:49;;;;;;;119.28;60.58;;;;;;;5.90;80.71;100870.03;5069111;28;20031;-26
2022/11/10 03:23:17;;;;;;;115.82;57.30;;;;;;;5.76;80.99;100853.03;5087110;28;20476;-28
2022/11/10 03:25:42;;;;;;;129.68;62.40;;;;;;;6.00;82.34;100870.69;5069076;28;20081;-26
2022/11/10 03:28:08;;;;;;;193.75;74.25;;;;;;;5.92;81.81;100868.03;5087436;28;20036;-26
2022/11/10 03:30:34;;;;;;;166.55;66.97;;;;;;;6.07;81.22;100876.16;5087216;28;20032;-26
2022/11/10 03:32:59;;;;;;;120.30;56.03;;;;;;;5.95;82.91;100861.63;5086001;28;20020;-26
2022/11/10 03:35:25;;;;;;;99.03;49.42;;;;;;;5.92;82.14;100873.31;5086945;28;20061;-27
2022/11/10 03:37:51;;;;;;;80.57;46.35;;;;;;;5.93;80.93;100853.00;5087278;28;20028;-28
2022/11/10 03:40:16;;;;;;;80.50;48.83;;;;;;;5.91;81.61;100874.34;5087179;28;20036;-31
2022/11/10 03:42:45;;;;;;;78.63;46.05;;;;;;;6.06;80.36;100868.38;5087072;28;20024;-26
2022/11/10 03:45:12;;;;;;;82.63;46.97;;;;;;;5.87;80.95;100859.78;5086764;28;20043;-27
2022/11/10 03:47:38;;;;;;;87.22;48.70;;;;;;;5.69;81.81;100848.56;5086964;28;20028;-30
2022/11/10 03:50:05;;;;;;;84.72;46.17;;;;;;;6.03;80.89;100870.38;5068859;28;20123;-26
2022/11/10 03:52:31;;;;;;;83.72;46.88;;;;;;;6.17;80.53;100854.75;5068723;28;20039;-28
2022/11/10 03:54:56;;;;;;;80.20;47.70;;;;;;;6.59;79.46;100853.59;5087160;28;20275;-26
2022/11/10 03:57:21;;;;;;;72.85;44.20;;;;;;;6.18;80.31;100877.63;5086734;28;20024;-29
2022/11/10 03:59:47;;;;;;;69.72;42.88;;;;;;;6.08;80.93;100876.97;5086872;28;20039;-31
2022/11/10 04:02:12;;;;;;;69.53;40.05;;;;;;;6.24;80.88;100872.44;5087124;28;20462;-28
2022/11/10 04:10:06;;;;;;;60.20;31.00;;;;;;;6.64;79.28;100877.78;5087021;28;20123;-28
2022/11/10 04:20:45;;;;;;;80.57;39.22;;;;;;;6.28;80.25;100891.47;5087394;28;20059;-26
2022/11/10 04:23:26;;;;;;;58.42;33.55;;;;;;;6.46;79.99;100870.06;5072326;28;20024;-26
2022/11/10 04:28:46;;;;;;;60.47;35.53;;;;;;;6.63;79.23;100881.41;5090828;28;20055;-26
2022/11/10 04:31:12;;;;;;;89.05;50.42;;;;;;;6.47;79.88;100889.44;5090019;28;20031;-29
2022/11/10 04:33:38;;;;;;;81.75;47.30;;;;;;;6.71;79.69;100888.50;5072090;28;20036;-25
2022/11/10 04:36:05;;;;;;;76.05;42.38;;;;;;;6.88;78.81;100884.75;5072125;28;20030;-28
2022/11/10 04:38:30;;;;;;;70.22;39.40;;;;;;;6.97;78.85;100888.22;5090438;28;20016;-29
2022/11/10 04:40:56;;;;;;;86.57;42.40;;;;;;;7.10;78.92;100882.31;5090016;28;20032;-26
2022/11/10 04:43:22;;;;;;;92.43;44.47;;;;;;;6.96;79.39;100882.06;5071726;28;20024;-27
2022/11/10 04:45:47;;;;;;;122.28;47.63;;;;;;;6.98;79.30;100860.66;5090005;28;20416;-27
2022/11/10 04:48:13;;;;;;;111.45;47.47;;;;;;;7.16;78.65;100882.44;5071850;28;20027;-27
2022/11/10 04:50:38;;;;;;;92.05;44.22;;;;;;;6.93;79.78;100882.41;5090437;28;20102;-25
2022/11/10 04:53:04;;;;;;;80.35;37.63;;;;;;;7.06;79.05;100878.38;5089867;28;20107;-28
2022/11/10 04:55:29;;;;;;;70.10;34.97;;;;;;;7.09;78.49;100870.88;5090285;28;20032;-26
2022/11/10 04:57:54;;;;;;;79.93;38.63;;;;;;;7.28;78.95;100880.19;5090066;28;20023;-29
2022/11/10 05:00:20;;;;;;;58.05;33.58;;;;;;;7.17;77.50;100870.84;5071678;28;20035;-28
2022/11/10 05:02:45;;;;;;;69.05;37.90;;;;;;;7.29;78.23;100870.41;5071537;28;20032;-29
2022/11/10 05:05:11;;;;;;;72.70;37.50;;;;;;;7.15;78.44;100874.63;5088414;28;20040;-27
2022/11/10 05:07:37;;;;;;;73.10;39.75;;;;;;;7.19;78.54;100874.13;5089833;28;20063;-30
2022/11/10 05:10:03;;;;;;;82.85;43.17;;;;;;;7.16;78.63;100893.03;5089648;28;20416;-27
2022/11/10 05:12:28;;;;;;;81.32;46.97;;;;;;;7.30;78.63;100899.41;5089919;28;20028;-27
2022/11/10 05:14:54;;;;;;;68.93;39.88;;;;;;;7.44;77.48;100905.78;5089546;28;20024;-25
2022/11/10 05:17:20;;;;;;;81.90;42.20;;;;;;;7.46;77.60;100903.78;5089795;28;20051;-26
2022/11/10 05:19:46;;;;;;;71.15;41.85;;;;;;;7.00;78.27;100882.53;5090187;28;20400;-27
2022/11/10 05:22:12;;;;;;;81.35;44.10;;;;;;;7.19;77.85;100918.38;5089812;28;20056;-28
2022/11/10 05:24:37;;;;;;;87.05;48.75;;;;;;;7.12;77.81;100918.28;5089635;28;20542;-26
2022/11/10 05:27:03;;;;;;;89.80;49.20;;;;;;;6.81;79.57;100900.53;5089214;28;20081;-29
2022/11/10 05:29:28;;;;;;;87.55;48.90;;;;;;;7.18;79.03;100916.75;5089652;28;20035;-26
2022/11/10 05:31:54;;;;;;;92.60;49.75;;;;;;;7.21;79.55;100906.63;5070370;28;20043;-27
2022/11/10 05:34:19;;;;;;;95.45;49.25;;;;;;;7.10;80.48;100907.00;5071148;28;20028;-27
2022/11/10 05:36:44;;;;;;;92.88;49.85;;;;;;;7.24;80.41;100911.56;5089490;28;20272;-26
2022/11/10 05:39:10;;;;;;;87.90;48.78;;;;;;;7.35;79.99;100920.13;5070932;28;20032;-30
2022/11/10 05:41:35;;;;;;;94.25;52.30;;;;;;;7.30;80.16;100909.22;5089408;28;20036;-26
2022/11/10 05:44:00;;;;;;;99.07;52.97;;;;;;;7.52;79.94;100928.78;5088935;28;20021;-27
2022/11/10 05:46:26;;;;;;;100.28;54.58;;;;;;;7.40;80.58;100915.13;5071721;28;20552;-26
2022/11/10 05:48:51;;;;;;;90.60;50.40;;;;;;;7.59;80.21;100941.16;5088953;28;20028;-26
2022/11/10 05:51:17;;;;;;;92.05;49.58;;;;;;;7.59;81.36;100933.19;5088972;28;20032;-27
2022/11/10 05:53:42;;;;;;;85.75;49.08;;;;;;;7.41;82.16;100917.56;5089129;28;20028;-29
2022/11/10 05:56:07;;;;;;;90.97;44.60;;;;;;;7.69;83.19;100945.41;5070921;28;20035;-26
2022/11/10 05:58:33;;;;;;;89.10;40.25;;;;;;;7.89;83.84;100949.22;5088759;28;20108;-27
2022/11/10 06:00:58;;;;;;;82.00;38.40;;;;;;;7.87;83.49;100911.41;5089259;28;20038;-27
2022/11/10 06:03:24;;;;;;;106.65;43.92;;;;;;;7.98;83.65;100934.84;5088917;28;20555;-28
2022/11/10 06:05:49;;;;;;;95.38;42.47;;;;;;;8.21;83.87;100956.06;5088793;28;20423;-27
2022/11/10 06:08:16;;;;;;;100.93;40.58;;;;;;;8.18;84.27;100958.25;5070796;28;20048;-29
2022/11/10 06:10:42;;;;;;;108.20;42.58;;;;;;;8.04;85.13;100939.44;5088701;28;20078;-28
2022/11/10 06:13:08;;;;;;;93.07;40.78;;;;;;;8.23;85.34;100958.53;5088387;28;20036;-25
2022/11/10 06:15:33;;;;;;;92.47;40.08;;;;;;;8.21;86.26;100971.16;5088404;28;20127;-28
2022/11/10 06:17:59;;;;;;;149.40;55.58;;;;;;;8.37;85.50;100965.69;5088858;28;20119;-28
2022/11/10 06:20:25;;;;;;;122.10;49.60;;;;;;;8.42;84.51;100973.19;5088580;28;20039;-27
2022/11/10 06:23:08;;;;;;;120.40;47.97;;;;;;;8.30;85.96;100972.75;5070355;28;20038;-28
2022/11/10 06:25:36;;;;;;;111.20;44.40;;;;;;;8.42;86.50;100968.69;5088442;28;20024;-29
2022/11/10 06:28:02;;;;;;;99.75;42.25;;;;;;;8.54;86.05;100970.88;5088371;28;20035;-25
2022/11/10 06:30:29;;;;;;;101.50;42.97;;;;;;;8.57;85.66;100968.66;5088528;28;20030;-27
2022/11/10 06:32:55;;;;;;;108.38;41.33;;;;;;;8.62;85.88;100973.44;5088499;28;20024;-28
2022/11/10 06:35:21;;;;;;;109.90;42.15;;;;;;;8.69;85.88;100971.69;5088000;28;20575;-31
2022/11/10 06:38:02;;;;;;;116.65;43.28;;;;;;;8.63;86.63;100953.81;5088495;28;20115;-27
2022/11/10 06:40:28;;;;;;;116.75;41.90;;;;;;;8.68;87.02;100978.00;5088234;28;20119;-26
2022/11/10 06:42:54;;;;;;;122.18;44.92;;;;;;;8.72;87.41;100967.84;5069816;28;20027;-28
2022/11/10 06:45:19;;;;;;;113.75;43.75;;;;;;;8.60;88.86;100967.47;5087863;28;20031;-26
2022/11/10 06:47:45;;;;;;;114.53;43.85;;;;;;;8.48;89.12;100966.28;5088253;28;20036;-28
2022/11/10 06:50:10;;;;;;;119.63;43.20;;;;;;;8.93;87.59;100959.94;5088318;28;20145;-28
2022/11/10 06:52:36;;;;;;;115.90;43.65;;;;;;;9.23;86.55;100992.66;5087811;28;20080;-30
2022/11/10 06:55:01;;;;;;;111.80;43.83;;;;;;;8.92;88.47;100982.22;5088189;28;20158;-27
2022/11/10 06:57:26;;;;;;;110.38;43.08;;;;;;;9.12;88.50;100968.34;5087937;28;20110;-28
2022/11/10 06:59:52;;;;;;;108.32;43.28;;;;;;;9.11;88.58;100993.28;5088172;28;20047;-26
2022/11/10 07:02:18;;;;;;;112.97;46.28;;;;;;;9.32;87.79;100995.19;5088060;28;20544;-27
2022/11/10 07:04:43;;;;;;;107.55;40.53;;;;;;;9.42;87.29;100995.72;5087681;28;20035;-27
2022/11/10 07:07:09;;;;;;;105.53;40.05;;;;;;;9.48;87.37;100994.13;5087787;28;20043;-26
2022/11/10 07:09:35;;;;;;;92.97;40.50;;;;;;;9.37;88.36;100988.28;5087538;28;20477;-28
2022/11/10 07:12:00;;;;;;;103.18;41.63;;;;;;;9.62;87.12;100985.25;5069535;28;20059;-30
2022/11/10 07:14:26;;;;;;;88.88;32.83;;;;;;;9.55;88.12;100995.03;5087508;28;20032;-27
2022/11/10 07:16:51;;;;;;;86.03;29.88;;;;;;;9.61;87.05;100973.78;5069432;28;20192;-27
2022/11/10 07:19:16;;;;;;;61.60;26.30;;;;;;;9.46;88.77;100991.66;5068948;28;20565;-27
2022/11/10 07:21:42;;;;;;;73.97;31.40;;;;;;;9.43;88.94;100960.09;5087311;28;20020;-28
2022/11/10 07:24:07;;;;;;;121.47;45.20;;;;;;;9.72;87.14;100988.41;5087213;28;20034;-27
2022/11/10 07:26:33;;;;;;;104.22;46.05;;;;;;;9.76;86.93;100996.88;5068981;28;20108;-30
2022/11/10 07:28:58;;;;;;;117.13;44.17;;;;;;;9.81;87.17;100975.81;5087375;28;20034;-28
2022/11/10 07:31:24;;;;;;;102.25;37.90;;;;;;;9.77;88.33;100994.03;5087072;28;20055;-32
2022/11/10 07:33:49;;;;;;;104.05;43.60;;;;;;;9.49;89.74;100980.63;5087356;28;20058;-26
2022/11/10 07:36:15;;;;;;;91.22;37.70;;;;;;;9.48;90.24;100989.63;5087410;28;20122;-27
2022/11/10 07:38:40;;;;;;;119.10;46.72;;;;;;;9.60;89.31;100982.81;5069071;28;20024;-31
2022/11/10 07:41:06;;;;;;;122.38;46.75;;;;;;;9.50;91.20;100995.59;5087044;28;20028;-28
2022/11/10 07:43:31;;;;;;;117.70;46.25;;;;;;;9.21;91.23;101000.00;5087518;28;20419;-26
2022/11/10 07:45:57;;;;;;;104.43;43.60;;;;;;;9.03;91.58;100975.59;5087305;28;20028;-30
2022/11/10 07:48:22;;;;;;;101.82;41.70;;;;;;;9.29;91.27;100993.72;5087661;28;20157;-27
2022/11/10 07:50:49;;;;;;;95.47;40.78;;;;;;;9.32;91.36;100985.38;5068992;28;20083;-28
2022/11/10 07:53:18;;;;;;;96.90;41.85;;;;;;;9.59;90.48;101001.63;5068508;28;20031;-29
2022/11/10 07:55:45;;;;;;;105.70;43.08;;;;;;;9.40;90.02;100979.09;5088482;28;20039;-27
2022/11/10 07:58:13;;;;;;;114.03;46.03;;;;;;;9.61;89.68;100983.63;5073013;28;20055;-27
2022/11/10 08:00:39;;;;;;;125.65;47.13;;;;;;;9.58;90.51;100999.97;5091280;28;20036;-28
2022/11/10 08:03:06;;;;;;;108.78;44.13;;;;;;;9.90;88.66;100995.97;5090732;28;20043;-27
2022/11/10 08:05:32;;;;;;;104.03;45.15;;;;;;;9.72;90.26;100998.25;5091155;28;20040;-30
2022/11/10 08:07:59;;;;;;;103.72;41.80;;;;;;;9.83;88.90;100985.25;5069368;28;20056;-26
2022/11/10 08:10:25;;;;;;;100.05;43.80;;;;;;;9.90;88.16;100995.16;5071014;28;20029;-27
2022/11/10 08:12:55;;;;;;;90.22;40.10;;;;;;;10.14;88.13;100988.59;5069621;28;20041;-27
2022/11/10 08:15:21;;;;;;;85.43;39.40;;;;;;;10.15;87.32;101003.56;5070492;28;20420;-30
2022/11/10 08:17:46;;;;;;;82.20;38.55;;;;;;;10.43;86.31;100995.59;5069477;28;20112;-28
2022/11/10 08:20:12;;;;;;;80.22;36.30;;;;;;;10.67;85.36;101012.16;5070650;28;20085;-33
2022/11/10 08:22:37;;;;;;;72.72;34.25;;;;;;;10.85;82.89;101005.28;5069487;28;20052;-27
2022/11/10 08:25:03;;;;;;;79.90;34.78;;;;;;;11.06;82.41;101014.22;5070604;28;20473;-30
2022/11/10 08:27:28;;;;;;;88.28;38.72;;;;;;;10.91;81.89;100997.50;5066371;28;20042;-31
2022/11/10 08:29:54;;;;;;;73.35;35.03;;;;;;;11.08;82.68;101014.03;5060008;28;20025;-27
2022/11/10 08:32:20;;;;;;;64.13;31.23;;;;;;;11.12;81.93;101013.41;5050548;28;20035;-26
2022/11/10 08:34:45;;;;;;;60.40;31.25;;;;;;;11.64;80.56;101011.09;5050279;28;20025;-28
2022/11/10 08:37:11;;;;;;;67.53;31.58;;;;;;;11.50;81.56;101015.59;5049791;28;20044;-30
2022/11/10 08:39:36;;;;;;;63.33;30.17;;;;;;;11.53;81.40;101012.53;5050376;28;20462;-29
2022/11/10 08:42:02;;;;;;;58.03;30.38;;;;;;;11.56;80.21;101001.41;5050073;28;20485;-31
2022/11/10 08:44:27;;;;;;;57.80;28.35;;;;;;;11.89;79.36;101008.72;5050110;28;20032;-31
2022/11/10 08:46:52;;;;;;;61.30;27.30;;;;;;;12.09;77.24;101006.03;5049799;28;20039;-28
2022/11/10 08:49:18;;;;;;;47.05;25.55;;;;;;;12.23;76.11;100988.97;5048144;28;20086;-27
2022/11/10 08:51:43;;;;;;;50.65;25.90;;;;;;;12.25;76.00;101007.47;5049462;28;20029;-27
2022/11/10 08:54:09;;;;;;;48.42;24.83;;;;;;;12.46;75.29;101001.06;5050150;28;20116;-28
2022/11/10 08:56:34;;;;;;;48.35;26.10;;;;;;;12.23;76.36;100993.50;5049895;28;20072;-28
2022/11/10 08:59:00;;;;;;;45.72;25.02;;;;;;;12.41;75.84;101007.06;5049700;28;20124;-26
2022/11/10 09:01:25;;;;;;;56.65;26.27;;;;;;;12.41;75.76;100995.53;5049630;28;20071;-29
2022/11/10 09:03:50;;;;;;;47.65;25.05;;;;;;;12.65;74.07;100991.38;5049579;28;20024;-28
2022/11/10 09:06:16;;;;;;;47.35;26.40;;;;;;;12.99;73.30;101006.28;5064344;28;20056;-30
2022/11/10 09:08:41;;;;;;;46.60;25.20;;;;;;;12.98;72.79;100990.44;5064934;28;20408;-27
2022/11/10 09:11:07;;;;;;;45.05;23.88;;;;;;;13.17;72.02;100973.44;5049285;28;20083;-29
2022/11/10 09:13:33;;;;;;;38.58;23.00;;;;;;;13.35;70.80;101004.13;5049682;28;20119;-28
2022/11/10 09:16:01;;;;;;;42.60;23.13;;;;;;;13.49;70.37;100986.94;5049402;28;20028;-30
2022/11/10 09:18:26;;;;;;;39.57;22.90;;;;;;;13.79;69.40;100997.03;5049334;28;20083;-27
2022/11/10 09:20:51;;;;;;;39.80;22.85;;;;;;;13.58;68.84;100980.25;5048967;28;20255;-30
2022/11/10 09:23:18;;;;;;;39.63;23.20;;;;;;;13.95;67.55;100991.13;5049118;28;20091;-26
2022/11/10 09:25:49;;;;;;;34.70;22.48;;;;;;;13.98;68.61;100969.25;5047777;28;20493;-34
2022/11/10 09:28:16;;;;;;;35.53;22.17;;;;;;;14.03;68.08;100969.41;5047986;28;20025;-28
2022/11/10 09:30:44;;;;;;;36.95;21.92;;;;;;;14.62;66.42;100990.56;5047672;28;20063;-26
2022/11/10 09:33:09;;;;;;;;;;;;;;;14.50;66.47;100986.94;5047475;28;20037;-31
2022/11/10 09:35:35;;;;;;;37.20;23.10;;;;;;;14.80;65.14;100989.75;5049313;28;19915;-28
2022/11/10 09:38:00;;;;;;;33.40;21.20;;;;;;;14.78;65.16;100984.59;5050188;28;20498;-28
2022/11/10 09:40:42;;;;;;;33.95;22.38;;;;;;;15.10;64.80;100967.47;5068824;28;20064;-28
2022/11/10 09:43:16;;;;;;;43.72;22.10;;;;;;;15.57;62.59;100964.94;5067202;28;20458;-28
2022/11/10 09:45:46;;;;;;;38.70;21.77;;;;;;;15.47;63.03;100973.59;5067070;28;20033;-28
2022/11/10 09:48:21;;;;;;;37.95;22.95;;;;;;;15.79;62.45;100967.94;5069437;28;20028;-27
2022/11/10 09:50:52;;;;;;;35.83;22.38;;;;;;;15.77;61.52;100978.13;5069028;28;20039;-27
2022/11/10 09:53:25;;;;;;;33.20;21.88;;;;;;;16.19;59.81;100967.28;5067207;28;20021;-27
2022/11/10 09:56:05;;;;;;;36.20;21.88;;;;;;;16.41;59.07;100968.34;5066214;28;20419;-28
2022/11/10 09:58:37;;;;;;;34.95;21.77;;;;;;;16.30;60.41;100957.56;5068966;28;20111;-28
2022/11/10 10:01:09;;;;;;;38.58;22.33;;;;;;;16.32;60.66;100963.53;5068293;28;20715;-27
2022/11/10 10:03:40;;;;;;;39.38;24.52;;;;;;;16.40;59.85;100953.22;5067194;28;20040;-29
2022/11/10 10:06:09;;;;;;;37.15;23.30;;;;;;;16.37;59.57;100944.84;5071722;28;20071;-28
2022/11/10 10:08:56;;;;;;;36.80;22.27;;;;;;;16.63;59.48;100956.94;5088470;28;20071;-28
2022/11/10 10:11:38;;;;;;;35.60;22.50;;;;;;;17.16;58.42;100953.22;5088332;28;20028;-28
2022/11/10 10:14:22;;;;;;;40.58;23.98;;;;;;;17.55;57.34;100944.44;5088655;28;20036;-28
2022/11/10 10:16:53;;;;;;;36.13;21.83;;;;;;;17.37;56.25;100945.50;5088560;28;20212;-28
2022/11/10 10:19:33;;;;;;;39.85;22.45;;;;;;;17.42;56.67;100949.06;5087461;28;20031;-28
2022/11/10 10:22:26;;;;;;;40.20;23.98;;;;;;;17.78;54.09;100946.19;5070313;28;20122;-28
2022/11/10 10:24:55;;;;;;;33.88;21.88;;;;;;;17.54;54.73;100938.22;5088134;28;20465;-27
2022/11/10 10:27:24;;;;;;;36.60;23.40;;;;;;;17.43;55.45;100936.44;5087937;28;20032;-27
2022/11/10 10:29:50;;;;;;;37.13;23.48;;;;;;;17.43;55.17;100933.72;5088150;28;20020;-30
2022/11/10 10:32:16;;;;;;;39.53;24.90;;;;;;;17.71;55.60;100924.75;5088555;28;20031;-27
2022/11/10 10:34:44;;;;;;;37.00;24.73;;;;;;;17.72;54.41;100929.09;5069976;28;20047;-26
2022/11/10 10:37:32;;;;;;;38.50;23.42;;;;;;;17.75;55.43;100930.47;5069673;28;20546;-28
2022/11/10 10:39:57;;;;;;;38.80;24.20;;;;;;;17.77;54.63;100912.16;5087688;28;20717;-26
2022/11/10 10:42:35;;;;;;;41.03;24.95;;;;;;;18.45;54.75;100923.72;5070112;28;20081;-28
2022/11/10 10:45:19;;;;;;;41.88;25.50;;;;;;;18.28;53.75;100918.34;5088004;28;20031;-29
2022/11/10 10:47:48;;;;;;;37.97;25.27;;;;;;;18.19;54.16;100903.63;5069839;28;20084;-26
2022/11/10 10:50:34;;;;;;;36.50;25.27;;;;;;;18.39;53.74;100917.41;5087848;28;20032;-27
2022/11/10 10:53:07;;;;;;;38.95;25.13;;;;;;;18.58;51.59;100922.50;5088260;28;20020;-26
2022/11/10 10:55:34;;;;;;;39.60;25.25;;;;;;;18.55;52.67;100899.53;5087716;28;20032;-27
2022/11/10 10:58:22;;;;;;;40.65;25.60;;;;;;;18.80;51.76;100914.44;5087779;28;20035;-31
2022/11/10 11:00:54;;;;;;;38.75;25.50;;;;;;;19.27;50.64;100908.44;5069101;28;20038;-27
2022/11/10 11:03:41;;;;;;;38.17;25.55;;;;;;;19.94;50.18;100898.97;5087446;28;20028;-27
2022/11/10 11:06:17;;;;;;;41.15;25.95;;;;;;;20.30;48.29;100910.00;5087349;28;20067;-28
2022/11/10 11:09:15;;;;;;;37.75;25.48;;;;;;;19.78;48.09;100902.66;5087655;28;20027;-27
2022/11/10 11:11:43;;;;;;;39.47;25.83;;;;;;;19.51;49.39;100902.66;5084100;28;20051;-30
2022/11/10 11:14:18;;;;;;;39.47;25.20;;;;;;;19.67;48.52;100902.53;5087666;28;20117;-27
2022/11/10 11:16:46;;;;;;;43.60;27.45;;;;;;;19.88;47.54;100897.31;5087604;28;20032;-25
2022/11/10 11:19:12;;;;;;;41.95;27.27;;;;;;;20.30;47.37;100893.75;5068820;28;20762;-32
2022/11/10 11:21:49;;;;;;;35.72;25.27;;;;;;;20.48;47.17;100896.00;5087111;28;20080;-27
2022/11/10 11:24:31;;;;;;;37.67;25.53;;;;;;;20.19;46.06;100884.78;5087588;28;20020;-26
2022/11/10 11:27:03;;;;;;;37.90;25.10;;;;;;;20.47;46.66;100894.38;5087315;28;20262;-27
2022/11/10 11:29:44;;;;;;;41.63;25.50;;;;;;;20.55;45.98;100890.31;5068888;28;20043;-27
2022/11/10 11:32:38;;;;;;;35.65;25.70;;;;;;;20.42;47.00;100869.16;5086979;28;20044;-29
2022/11/10 11:35:11;;;;;;;38.50;24.70;;;;;;;20.59;45.40;100887.94;5087281;28;20077;-28
2022/11/10 11:38:10;;;;;;;40.05;25.92;;;;;;;20.80;45.20;100894.22;5087210;28;20024;-33